sensor_id;sensor_type;location;lat;lon;timestamp;P1;durP1;ratioP1;P2;durP2;ratioP2
11046;SDS011;5576;50.008;10.596;2022-12-18T00:01:18;27.33;;;14.63;;
11046;SDS011;5576;50.008;10.596;2022-12-18T00:03:45;30.67;;;18.55;;
11046;SDS011;5576;50.008;10.596;2022-12-18T00:06:13;24.15;;;14.77;;
11046;SDS011;5576;50.008;10.596;2022-12-18T00:08:40;27.25;;;14.93;;
11046;SDS011;5576;50.008;10.596;2022-12-18T00:11:07;27.83;;;16.10;;
11046;SDS011;5576;50.008;10.596;2022-12-18T00:13:35;25.27;;;14.45;;
11046;SDS011;5576;50.008;10.596;2022-12-18T00:16:02;25.45;;;15.10;;
11046;SDS011;5576;50.008;10.596;2022-12-18T00:18:29;25.63;;;14.77;;
11046;SDS011;5576;50.008;10.596;2022-12-18T00:20:58;28.17;;;15.43;;
11046;SDS011;5576;50.008;10.596;2022-12-18T00:23:25;27.00;;;15.20;;
11046;SDS011;5576;50.008;10.596;2022-12-18T00:25:51;28.27;;;15.10;;
11046;SDS011;5576;50.008;10.596;2022-12-18T00:28:17;26.77;;;14.40;;
11046;SDS011;5576;50.008;10.596;2022-12-18T00:30:43;25.88;;;15.15;;
11046;SDS011;5576;50.008;10.596;2022-12-18T00:33:08;31.60;;;19.47;;
11046;SDS011;5576;50.008;10.596;2022-12-18T00:35:34;30.17;;;19.75;;
11046;SDS011;5576;50.008;10.596;2022-12-18T00:38:00;27.60;;;15.80;;
11046;SDS011;5576;50.008;10.596;2022-12-18T00:40:25;27.93;;;15.77;;
11046;SDS011;5576;50.008;10.596;2022-12-18T00:42:52;27.88;;;15.90;;
11046;SDS011;5576;50.008;10.596;2022-12-18T00:45:22;27.75;;;14.90;;
11046;SDS011;5576;50.008;10.596;2022-12-18T00:47:49;22.83;;;13.68;;
11046;SDS011;5576;50.008;10.596;2022-12-18T00:50:15;27.30;;;15.10;;
11046;SDS011;5576;50.008;10.596;2022-12-18T00:52:41;33.80;;;18.17;;
11046;SDS011;5576;50.008;10.596;2022-12-18T00:55:08;31.63;;;16.05;;
11046;SDS011;5576;50.008;10.596;2022-12-18T00:57:34;27.70;;;15.13;;
11046;SDS011;5576;50.008;10.596;2022-12-18T01:00:00;36.33;;;19.75;;
11046;SDS011;5576;50.008;10.596;2022-12-18T01:02:26;28.90;;;15.55;;
11046;SDS011;5576;50.008;10.596;2022-12-18T01:04:52;29.83;;;15.50;;
11046;SDS011;5576;50.008;10.596;2022-12-18T01:07:18;27.77;;;15.05;;
11046;SDS011;5576;50.008;10.596;2022-12-18T01:09:45;28.65;;;14.07;;
11046;SDS011;5576;50.008;10.596;2022-12-18T01:12:10;24.00;;;13.18;;
11046;SDS011;5576;50.008;10.596;2022-12-18T01:14:36;25.10;;;13.20;;
11046;SDS011;5576;50.008;10.596;2022-12-18T01:17:03;25.67;;;13.32;;
11046;SDS011;5576;50.008;10.596;2022-12-18T01:19:31;32.73;;;16.50;;
11046;SDS011;5576;50.008;10.596;2022-12-18T01:21:57;37.83;;;19.07;;
11046;SDS011;5576;50.008;10.596;2022-12-18T01:24:23;32.97;;;17.38;;
11046;SDS011;5576;50.008;10.596;2022-12-18T01:26:49;30.88;;;16.30;;
11046;SDS011;5576;50.008;10.596;2022-12-18T01:29:15;31.75;;;16.65;;
11046;SDS011;5576;50.008;10.596;2022-12-18T01:31:41;30.97;;;17.03;;
11046;SDS011;5576;50.008;10.596;2022-12-18T01:34:06;27.38;;;15.07;;
11046;SDS011;5576;50.008;10.596;2022-12-18T01:36:34;25.17;;;13.70;;
11046;SDS011;5576;50.008;10.596;2022-12-18T01:39:03;25.65;;;13.95;;
11046;SDS011;5576;50.008;10.596;2022-12-18T01:41:32;23.27;;;13.05;;
11046;SDS011;5576;50.008;10.596;2022-12-18T01:47:27;23.17;;;12.90;;
11046;SDS011;5576;50.008;10.596;2022-12-18T01:49:57;24.57;;;13.30;;
11046;SDS011;5576;50.008;10.596;2022-12-18T01:52:27;24.35;;;13.43;;
11046;SDS011;5576;50.008;10.596;2022-12-18T01:54:56;26.13;;;14.20;;
11046;SDS011;5576;50.008;10.596;2022-12-18T01:57:22;25.20;;;13.63;;
11046;SDS011;5576;50.008;10.596;2022-12-18T01:59:50;25.00;;;13.93;;
11046;SDS011;5576;50.008;10.596;2022-12-18T02:02:19;25.65;;;13.85;;
11046;SDS011;5576;50.008;10.596;2022-12-18T02:04:46;24.08;;;13.13;;
11046;SDS011;5576;50.008;10.596;2022-12-18T02:09:46;22.58;;;13.45;;
11046;SDS011;5576;50.008;10.596;2022-12-18T02:12:18;25.58;;;13.38;;
11046;SDS011;5576;50.008;10.596;2022-12-18T02:17:27;24.92;;;14.05;;
11046;SDS011;5576;50.008;10.596;2022-12-18T02:28:34;24.93;;;13.93;;
11046;SDS011;5576;50.008;10.596;2022-12-18T02:31:07;23.63;;;13.55;;
11046;SDS011;5576;50.008;10.596;2022-12-18T02:33:36;30.45;;;14.80;;
11046;SDS011;5576;50.008;10.596;2022-12-18T02:36:04;25.85;;;14.05;;
11046;SDS011;5576;50.008;10.596;2022-12-18T02:38:32;25.73;;;13.68;;
11046;SDS011;5576;50.008;10.596;2022-12-18T02:41:06;26.27;;;14.48;;
11046;SDS011;5576;50.008;10.596;2022-12-18T02:43:34;24.45;;;13.73;;
11046;SDS011;5576;50.008;10.596;2022-12-18T02:46:01;23.75;;;12.98;;
11046;SDS011;5576;50.008;10.596;2022-12-18T02:49:01;22.73;;;12.52;;
11046;SDS011;5576;50.008;10.596;2022-12-18T02:51:40;21.35;;;12.43;;
11046;SDS011;5576;50.008;10.596;2022-12-18T02:54:17;22.65;;;12.05;;
11046;SDS011;5576;50.008;10.596;2022-12-18T02:56:51;20.77;;;11.95;;
11046;SDS011;5576;50.008;10.596;2022-12-18T02:59:27;21.08;;;11.85;;
11046;SDS011;5576;50.008;10.596;2022-12-18T03:02:03;21.98;;;12.35;;
11046;SDS011;5576;50.008;10.596;2022-12-18T03:04:43;22.55;;;12.70;;
11046;SDS011;5576;50.008;10.596;2022-12-18T03:07:18;24.00;;;13.97;;
11046;SDS011;5576;50.008;10.596;2022-12-18T03:09:53;21.90;;;12.68;;
11046;SDS011;5576;50.008;10.596;2022-12-18T03:12:23;22.52;;;12.68;;
11046;SDS011;5576;50.008;10.596;2022-12-18T03:15:02;23.77;;;13.13;;
11046;SDS011;5576;50.008;10.596;2022-12-18T03:17:56;21.83;;;12.55;;
11046;SDS011;5576;50.008;10.596;2022-12-18T03:20:29;21.80;;;12.70;;
11046;SDS011;5576;50.008;10.596;2022-12-18T03:23:00;25.85;;;13.25;;
11046;SDS011;5576;50.008;10.596;2022-12-18T03:25:31;22.48;;;12.07;;
11046;SDS011;5576;50.008;10.596;2022-12-18T03:28:00;24.58;;;13.07;;
11046;SDS011;5576;50.008;10.596;2022-12-18T03:30:31;22.45;;;12.38;;
11046;SDS011;5576;50.008;10.596;2022-12-18T03:35:56;23.35;;;12.75;;
11046;SDS011;5576;50.008;10.596;2022-12-18T03:38:22;21.13;;;11.95;;
11046;SDS011;5576;50.008;10.596;2022-12-18T03:41:01;22.10;;;11.90;;
11046;SDS011;5576;50.008;10.596;2022-12-18T03:46:30;25.97;;;14.03;;
11046;SDS011;5576;50.008;10.596;2022-12-18T03:49:10;27.10;;;14.10;;
11046;SDS011;5576;50.008;10.596;2022-12-18T03:51:48;28.15;;;14.40;;
11046;SDS011;5576;50.008;10.596;2022-12-18T03:54:18;25.73;;;13.73;;
11046;SDS011;5576;50.008;10.596;2022-12-18T03:56:56;25.55;;;13.50;;
11046;SDS011;5576;50.008;10.596;2022-12-18T03:59:27;25.17;;;14.23;;
11046;SDS011;5576;50.008;10.596;2022-12-18T04:01:56;41.03;;;23.67;;
11046;SDS011;5576;50.008;10.596;2022-12-18T04:04:25;38.85;;;22.67;;
11046;SDS011;5576;50.008;10.596;2022-12-18T04:06:52;33.73;;;19.33;;
11046;SDS011;5576;50.008;10.596;2022-12-18T04:09:19;27.75;;;15.35;;
11046;SDS011;5576;50.008;10.596;2022-12-18T04:11:46;24.63;;;14.32;;
11046;SDS011;5576;50.008;10.596;2022-12-18T04:14:14;26.73;;;14.77;;
11046;SDS011;5576;50.008;10.596;2022-12-18T04:16:40;27.02;;;14.95;;
11046;SDS011;5576;50.008;10.596;2022-12-18T04:19:09;28.20;;;15.20;;
11046;SDS011;5576;50.008;10.596;2022-12-18T04:21:39;26.33;;;14.45;;
11046;SDS011;5576;50.008;10.596;2022-12-18T04:24:05;23.15;;;13.10;;
11046;SDS011;5576;50.008;10.596;2022-12-18T04:26:33;21.63;;;13.43;;
11046;SDS011;5576;50.008;10.596;2022-12-18T04:29:10;24.45;;;13.40;;
11046;SDS011;5576;50.008;10.596;2022-12-18T04:31:36;22.98;;;13.40;;
11046;SDS011;5576;50.008;10.596;2022-12-18T04:34:02;26.25;;;14.52;;
11046;SDS011;5576;50.008;10.596;2022-12-18T04:36:34;24.33;;;13.90;;
11046;SDS011;5576;50.008;10.596;2022-12-18T04:39:00;25.40;;;14.90;;
11046;SDS011;5576;50.008;10.596;2022-12-18T04:41:26;28.15;;;15.45;;
11046;SDS011;5576;50.008;10.596;2022-12-18T04:43:52;31.17;;;17.08;;
11046;SDS011;5576;50.008;10.596;2022-12-18T04:46:18;32.83;;;17.80;;
11046;SDS011;5576;50.008;10.596;2022-12-18T04:48:45;35.20;;;19.00;;
11046;SDS011;5576;50.008;10.596;2022-12-18T04:51:12;35.10;;;19.85;;
11046;SDS011;5576;50.008;10.596;2022-12-18T04:53:38;32.30;;;18.50;;
11046;SDS011;5576;50.008;10.596;2022-12-18T04:56:08;29.67;;;17.52;;
11046;SDS011;5576;50.008;10.596;2022-12-18T04:58:36;32.97;;;18.08;;
11046;SDS011;5576;50.008;10.596;2022-12-18T05:01:03;32.55;;;17.55;;
11046;SDS011;5576;50.008;10.596;2022-12-18T05:03:29;28.60;;;15.80;;
11046;SDS011;5576;50.008;10.596;2022-12-18T05:05:55;27.40;;;15.70;;
11046;SDS011;5576;50.008;10.596;2022-12-18T05:08:20;29.90;;;16.33;;
11046;SDS011;5576;50.008;10.596;2022-12-18T05:10:46;29.25;;;16.67;;
11046;SDS011;5576;50.008;10.596;2022-12-18T05:13:12;28.83;;;16.83;;
11046;SDS011;5576;50.008;10.596;2022-12-18T05:15:38;29.48;;;17.05;;
11046;SDS011;5576;50.008;10.596;2022-12-18T05:18:04;31.63;;;17.90;;
11046;SDS011;5576;50.008;10.596;2022-12-18T05:20:30;31.30;;;18.25;;
11046;SDS011;5576;50.008;10.596;2022-12-18T05:22:56;31.05;;;18.23;;
11046;SDS011;5576;50.008;10.596;2022-12-18T05:25:22;30.38;;;17.75;;
11046;SDS011;5576;50.008;10.596;2022-12-18T05:27:48;30.65;;;17.30;;
11046;SDS011;5576;50.008;10.596;2022-12-18T05:30:14;30.27;;;17.63;;
11046;SDS011;5576;50.008;10.596;2022-12-18T05:32:40;30.73;;;17.30;;
11046;SDS011;5576;50.008;10.596;2022-12-18T05:35:07;32.88;;;17.42;;
11046;SDS011;5576;50.008;10.596;2022-12-18T05:37:35;27.80;;;16.83;;
11046;SDS011;5576;50.008;10.596;2022-12-18T05:40:01;31.50;;;17.85;;
11046;SDS011;5576;50.008;10.596;2022-12-18T05:42:28;29.70;;;16.70;;
11046;SDS011;5576;50.008;10.596;2022-12-18T05:44:54;28.47;;;17.37;;
11046;SDS011;5576;50.008;10.596;2022-12-18T05:47:19;34.10;;;19.10;;
11046;SDS011;5576;50.008;10.596;2022-12-18T05:49:45;33.57;;;18.03;;
11046;SDS011;5576;50.008;10.596;2022-12-18T05:52:11;31.43;;;17.27;;
11046;SDS011;5576;50.008;10.596;2022-12-18T05:54:36;30.90;;;17.45;;
11046;SDS011;5576;50.008;10.596;2022-12-18T05:57:03;31.40;;;18.13;;
11046;SDS011;5576;50.008;10.596;2022-12-18T05:59:28;35.47;;;18.60;;
11046;SDS011;5576;50.008;10.596;2022-12-18T06:01:54;34.53;;;18.35;;
11046;SDS011;5576;50.008;10.596;2022-12-18T06:04:20;35.58;;;18.02;;
11046;SDS011;5576;50.008;10.596;2022-12-18T06:06:45;37.13;;;18.87;;
11046;SDS011;5576;50.008;10.596;2022-12-18T06:09:11;40.88;;;19.63;;
11046;SDS011;5576;50.008;10.596;2022-12-18T06:11:37;38.10;;;20.23;;
11046;SDS011;5576;50.008;10.596;2022-12-18T06:14:03;36.47;;;19.50;;
11046;SDS011;5576;50.008;10.596;2022-12-18T06:16:30;37.22;;;19.92;;
11046;SDS011;5576;50.008;10.596;2022-12-18T06:18:57;36.20;;;18.95;;
11046;SDS011;5576;50.008;10.596;2022-12-18T06:21:23;36.13;;;18.80;;
11046;SDS011;5576;50.008;10.596;2022-12-18T06:23:50;37.72;;;18.60;;
11046;SDS011;5576;50.008;10.596;2022-12-18T06:26:16;38.47;;;18.80;;
11046;SDS011;5576;50.008;10.596;2022-12-18T06:28:42;41.28;;;19.65;;
11046;SDS011;5576;50.008;10.596;2022-12-18T06:31:08;38.40;;;18.63;;
11046;SDS011;5576;50.008;10.596;2022-12-18T06:33:34;40.83;;;18.85;;
11046;SDS011;5576;50.008;10.596;2022-12-18T06:36:01;37.72;;;18.42;;
11046;SDS011;5576;50.008;10.596;2022-12-18T06:38:31;39.08;;;19.58;;
11046;SDS011;5576;50.008;10.596;2022-12-18T06:40:57;39.47;;;19.38;;
11046;SDS011;5576;50.008;10.596;2022-12-18T06:43:23;42.42;;;20.55;;
11046;SDS011;5576;50.008;10.596;2022-12-18T06:45:49;40.15;;;18.85;;
11046;SDS011;5576;50.008;10.596;2022-12-18T06:48:18;37.78;;;18.88;;
11046;SDS011;5576;50.008;10.596;2022-12-18T06:50:45;39.72;;;19.77;;
11046;SDS011;5576;50.008;10.596;2022-12-18T06:53:10;37.00;;;19.25;;
11046;SDS011;5576;50.008;10.596;2022-12-18T06:55:36;37.35;;;18.88;;
11046;SDS011;5576;50.008;10.596;2022-12-18T06:58:02;37.80;;;19.03;;
11046;SDS011;5576;50.008;10.596;2022-12-18T07:00:28;38.85;;;18.75;;
11046;SDS011;5576;50.008;10.596;2022-12-18T07:02:53;38.80;;;19.65;;
11046;SDS011;5576;50.008;10.596;2022-12-18T07:05:19;38.50;;;18.90;;
11046;SDS011;5576;50.008;10.596;2022-12-18T07:07:45;36.95;;;18.25;;
11046;SDS011;5576;50.008;10.596;2022-12-18T07:10:11;37.30;;;18.33;;
11046;SDS011;5576;50.008;10.596;2022-12-18T07:12:36;34.70;;;17.77;;
11046;SDS011;5576;50.008;10.596;2022-12-18T07:15:03;36.97;;;17.90;;
11046;SDS011;5576;50.008;10.596;2022-12-18T07:17:29;39.33;;;18.77;;
11046;SDS011;5576;50.008;10.596;2022-12-18T07:19:55;37.30;;;17.42;;
11046;SDS011;5576;50.008;10.596;2022-12-18T07:22:20;40.13;;;18.88;;
11046;SDS011;5576;50.008;10.596;2022-12-18T07:24:46;37.77;;;18.07;;
11046;SDS011;5576;50.008;10.596;2022-12-18T07:27:12;41.03;;;19.00;;
11046;SDS011;5576;50.008;10.596;2022-12-18T07:29:37;35.60;;;17.93;;
11046;SDS011;5576;50.008;10.596;2022-12-18T07:32:03;37.70;;;17.87;;
11046;SDS011;5576;50.008;10.596;2022-12-18T07:34:29;39.42;;;18.23;;
11046;SDS011;5576;50.008;10.596;2022-12-18T07:36:55;38.53;;;17.33;;
11046;SDS011;5576;50.008;10.596;2022-12-18T07:39:20;34.47;;;16.27;;
11046;SDS011;5576;50.008;10.596;2022-12-18T07:41:46;34.17;;;16.65;;
11046;SDS011;5576;50.008;10.596;2022-12-18T07:44:32;35.63;;;16.75;;
11046;SDS011;5576;50.008;10.596;2022-12-18T07:46:57;33.83;;;16.35;;
11046;SDS011;5576;50.008;10.596;2022-12-18T07:49:23;36.30;;;16.70;;
11046;SDS011;5576;50.008;10.596;2022-12-18T07:51:49;33.03;;;16.77;;
11046;SDS011;5576;50.008;10.596;2022-12-18T07:54:14;34.53;;;16.42;;
11046;SDS011;5576;50.008;10.596;2022-12-18T07:56:40;34.33;;;16.40;;
11046;SDS011;5576;50.008;10.596;2022-12-18T07:59:06;33.38;;;15.70;;
11046;SDS011;5576;50.008;10.596;2022-12-18T08:01:32;32.40;;;16.55;;
11046;SDS011;5576;50.008;10.596;2022-12-18T08:03:58;34.03;;;15.95;;
11046;SDS011;5576;50.008;10.596;2022-12-18T08:06:24;37.53;;;18.40;;
11046;SDS011;5576;50.008;10.596;2022-12-18T08:08:52;37.25;;;17.15;;
11046;SDS011;5576;50.008;10.596;2022-12-18T08:11:19;54.45;;;24.38;;
11046;SDS011;5576;50.008;10.596;2022-12-18T08:13:44;43.22;;;22.65;;
11046;SDS011;5576;50.008;10.596;2022-12-18T08:16:10;36.22;;;17.95;;
11046;SDS011;5576;50.008;10.596;2022-12-18T08:18:36;33.00;;;15.67;;
11046;SDS011;5576;50.008;10.596;2022-12-18T08:21:10;39.70;;;19.58;;
11046;SDS011;5576;50.008;10.596;2022-12-18T08:23:37;34.97;;;15.23;;
11046;SDS011;5576;50.008;10.596;2022-12-18T08:26:03;36.15;;;17.00;;
11046;SDS011;5576;50.008;10.596;2022-12-18T08:28:29;38.97;;;17.67;;
11046;SDS011;5576;50.008;10.596;2022-12-18T08:30:55;35.30;;;16.63;;
11046;SDS011;5576;50.008;10.596;2022-12-18T08:33:21;38.80;;;18.35;;
11046;SDS011;5576;50.008;10.596;2022-12-18T08:35:46;42.10;;;19.47;;
11046;SDS011;5576;50.008;10.596;2022-12-18T08:38:12;36.70;;;18.23;;
11046;SDS011;5576;50.008;10.596;2022-12-18T08:40:38;39.15;;;18.75;;
11046;SDS011;5576;50.008;10.596;2022-12-18T08:43:03;31.30;;;17.10;;
11046;SDS011;5576;50.008;10.596;2022-12-18T08:45:49;34.92;;;17.10;;
11046;SDS011;5576;50.008;10.596;2022-12-18T08:48:15;36.97;;;18.50;;
11046;SDS011;5576;50.008;10.596;2022-12-18T08:50:40;38.05;;;20.10;;
11046;SDS011;5576;50.008;10.596;2022-12-18T08:53:06;31.43;;;15.83;;
11046;SDS011;5576;50.008;10.596;2022-12-18T08:55:32;34.53;;;17.37;;
11046;SDS011;5576;50.008;10.596;2022-12-18T08:57:57;29.63;;;14.48;;
11046;SDS011;5576;50.008;10.596;2022-12-18T09:00:23;31.83;;;15.43;;
11046;SDS011;5576;50.008;10.596;2022-12-18T09:02:49;33.58;;;16.00;;
11046;SDS011;5576;50.008;10.596;2022-12-18T09:05:15;30.73;;;15.60;;
11046;SDS011;5576;50.008;10.596;2022-12-18T09:07:40;33.38;;;16.50;;
11046;SDS011;5576;50.008;10.596;2022-12-18T09:10:06;39.63;;;18.73;;
11046;SDS011;5576;50.008;10.596;2022-12-18T09:12:32;39.80;;;20.70;;
11046;SDS011;5576;50.008;10.596;2022-12-18T09:14:58;36.78;;;18.58;;
11046;SDS011;5576;50.008;10.596;2022-12-18T09:17:24;38.20;;;20.37;;
11046;SDS011;5576;50.008;10.596;2022-12-18T09:19:49;38.80;;;16.77;;
11046;SDS011;5576;50.008;10.596;2022-12-18T09:22:15;35.67;;;18.42;;
11046;SDS011;5576;50.008;10.596;2022-12-18T09:24:41;35.83;;;17.67;;
11046;SDS011;5576;50.008;10.596;2022-12-18T09:27:07;36.33;;;17.67;;
11046;SDS011;5576;50.008;10.596;2022-12-18T09:29:32;36.63;;;17.60;;
11046;SDS011;5576;50.008;10.596;2022-12-18T09:31:58;32.40;;;17.15;;
11046;SDS011;5576;50.008;10.596;2022-12-18T09:34:24;33.17;;;17.43;;
11046;SDS011;5576;50.008;10.596;2022-12-18T09:36:49;36.23;;;19.10;;
11046;SDS011;5576;50.008;10.596;2022-12-18T09:39:15;32.95;;;16.98;;
11046;SDS011;5576;50.008;10.596;2022-12-18T09:41:43;32.63;;;17.43;;
11046;SDS011;5576;50.008;10.596;2022-12-18T09:44:15;30.23;;;15.10;;
11046;SDS011;5576;50.008;10.596;2022-12-18T09:49:53;32.80;;;16.38;;
11046;SDS011;5576;50.008;10.596;2022-12-18T09:52:25;30.10;;;14.95;;
11046;SDS011;5576;50.008;10.596;2022-12-18T09:55:15;30.10;;;15.48;;
11046;SDS011;5576;50.008;10.596;2022-12-18T09:58:02;30.67;;;14.65;;
11046;SDS011;5576;50.008;10.596;2022-12-18T10:00:31;40.33;;;20.47;;
11046;SDS011;5576;50.008;10.596;2022-12-18T10:02:59;37.80;;;20.33;;
11046;SDS011;5576;50.008;10.596;2022-12-18T10:11:01;31.57;;;16.60;;
11046;SDS011;5576;50.008;10.596;2022-12-18T10:13:39;43.45;;;21.38;;
11046;SDS011;5576;50.008;10.596;2022-12-18T10:16:12;29.83;;;15.25;;
11046;SDS011;5576;50.008;10.596;2022-12-18T10:19:01;29.95;;;15.05;;
11046;SDS011;5576;50.008;10.596;2022-12-18T10:21:47;28.50;;;14.30;;
11046;SDS011;5576;50.008;10.596;2022-12-18T10:27:15;29.27;;;16.47;;
11046;SDS011;5576;50.008;10.596;2022-12-18T10:29:46;29.30;;;15.35;;
11046;SDS011;5576;50.008;10.596;2022-12-18T10:32:14;32.03;;;15.83;;
11046;SDS011;5576;50.008;10.596;2022-12-18T10:34:44;30.30;;;15.77;;
11046;SDS011;5576;50.008;10.596;2022-12-18T10:37:15;32.60;;;15.10;;
11046;SDS011;5576;50.008;10.596;2022-12-18T10:39:43;31.73;;;15.68;;
11046;SDS011;5576;50.008;10.596;2022-12-18T10:42:10;31.67;;;15.65;;
11046;SDS011;5576;50.008;10.596;2022-12-18T10:44:44;30.17;;;16.08;;
11046;SDS011;5576;50.008;10.596;2022-12-18T10:47:12;32.33;;;17.00;;
11046;SDS011;5576;50.008;10.596;2022-12-18T10:49:47;31.73;;;16.55;;
11046;SDS011;5576;50.008;10.596;2022-12-18T10:52:16;30.25;;;15.90;;
11046;SDS011;5576;50.008;10.596;2022-12-18T10:54:48;28.40;;;15.27;;
11046;SDS011;5576;50.008;10.596;2022-12-18T10:57:17;28.98;;;14.77;;
11046;SDS011;5576;50.008;10.596;2022-12-18T10:59:52;31.05;;;15.93;;
11046;SDS011;5576;50.008;10.596;2022-12-18T11:02:33;31.23;;;16.10;;
11046;SDS011;5576;50.008;10.596;2022-12-18T11:05:00;28.52;;;14.80;;
11046;SDS011;5576;50.008;10.596;2022-12-18T11:07:26;28.73;;;14.98;;
11046;SDS011;5576;50.008;10.596;2022-12-18T11:10:15;30.95;;;16.10;;
11046;SDS011;5576;50.008;10.596;2022-12-18T11:12:42;29.85;;;15.00;;
11046;SDS011;5576;50.008;10.596;2022-12-18T11:15:16;29.33;;;15.45;;
11046;SDS011;5576;50.008;10.596;2022-12-18T11:17:47;27.00;;;15.18;;
11046;SDS011;5576;50.008;10.596;2022-12-18T11:20:20;27.70;;;14.93;;
11046;SDS011;5576;50.008;10.596;2022-12-18T11:22:55;27.95;;;14.82;;
11046;SDS011;5576;50.008;10.596;2022-12-18T11:25:23;27.33;;;14.82;;
11046;SDS011;5576;50.008;10.596;2022-12-18T11:27:50;28.90;;;14.98;;
11046;SDS011;5576;50.008;10.596;2022-12-18T11:32:53;26.83;;;15.32;;
11046;SDS011;5576;50.008;10.596;2022-12-18T11:38:34;29.20;;;17.37;;
11046;SDS011;5576;50.008;10.596;2022-12-18T11:41:04;29.45;;;15.88;;
11046;SDS011;5576;50.008;10.596;2022-12-18T11:43:44;27.90;;;15.30;;
11046;SDS011;5576;50.008;10.596;2022-12-18T11:46:17;34.22;;;19.17;;
11046;SDS011;5576;50.008;10.596;2022-12-18T11:48:50;35.75;;;20.75;;
11046;SDS011;5576;50.008;10.596;2022-12-18T11:51:41;27.58;;;16.75;;
11046;SDS011;5576;50.008;10.596;2022-12-18T11:54:14;31.00;;;16.60;;
11046;SDS011;5576;50.008;10.596;2022-12-18T11:59:19;31.90;;;18.77;;
11046;SDS011;5576;50.008;10.596;2022-12-18T12:04:44;30.27;;;17.55;;
11046;SDS011;5576;50.008;10.596;2022-12-18T12:15:59;30.02;;;16.50;;
11046;SDS011;5576;50.008;10.596;2022-12-18T12:23:52;29.20;;;16.50;;
11046;SDS011;5576;50.008;10.596;2022-12-18T12:29:14;30.58;;;16.90;;
11046;SDS011;5576;50.008;10.596;2022-12-18T12:34:26;26.20;;;15.55;;
11046;SDS011;5576;50.008;10.596;2022-12-18T12:37:04;30.40;;;16.33;;
11046;SDS011;5576;50.008;10.596;2022-12-18T12:39:44;25.67;;;15.75;;
11046;SDS011;5576;50.008;10.596;2022-12-18T12:45:30;27.75;;;14.60;;
11046;SDS011;5576;50.008;10.596;2022-12-18T12:48:38;25.10;;;14.95;;
11046;SDS011;5576;50.008;10.596;2022-12-18T12:51:09;26.50;;;14.90;;
11046;SDS011;5576;50.008;10.596;2022-12-18T12:53:45;27.17;;;15.32;;
11046;SDS011;5576;50.008;10.596;2022-12-18T12:56:13;29.42;;;16.58;;
11046;SDS011;5576;50.008;10.596;2022-12-18T12:58:45;37.13;;;21.67;;
11046;SDS011;5576;50.008;10.596;2022-12-18T13:03:54;25.60;;;15.73;;
11046;SDS011;5576;50.008;10.596;2022-12-18T13:09:07;24.97;;;14.93;;
11046;SDS011;5576;50.008;10.596;2022-12-18T13:11:41;24.23;;;13.80;;
11046;SDS011;5576;50.008;10.596;2022-12-18T13:19:43;25.30;;;15.10;;
11046;SDS011;5576;50.008;10.596;2022-12-18T13:22:28;25.83;;;15.27;;
11046;SDS011;5576;50.008;10.596;2022-12-18T13:24:56;29.02;;;17.27;;
11046;SDS011;5576;50.008;10.596;2022-12-18T13:46:00;37.20;;;20.70;;
11046;SDS011;5576;50.008;10.596;2022-12-18T13:48:30;26.08;;;14.75;;
11046;SDS011;5576;50.008;10.596;2022-12-18T13:51:01;26.15;;;14.68;;
11046;SDS011;5576;50.008;10.596;2022-12-18T13:53:33;23.45;;;14.05;;
11046;SDS011;5576;50.008;10.596;2022-12-18T13:56:02;25.60;;;15.63;;
11046;SDS011;5576;50.008;10.596;2022-12-18T13:58:29;23.27;;;13.95;;
11046;SDS011;5576;50.008;10.596;2022-12-18T14:00:54;25.20;;;14.07;;
11046;SDS011;5576;50.008;10.596;2022-12-18T14:03:22;24.92;;;14.32;;
11046;SDS011;5576;50.008;10.596;2022-12-18T14:05:52;23.85;;;14.48;;
11046;SDS011;5576;50.008;10.596;2022-12-18T14:08:20;23.35;;;14.02;;
11046;SDS011;5576;50.008;10.596;2022-12-18T14:10:47;22.02;;;13.43;;
11046;SDS011;5576;50.008;10.596;2022-12-18T14:13:23;25.67;;;14.32;;
11046;SDS011;5576;50.008;10.596;2022-12-18T14:15:53;23.52;;;13.18;;
11046;SDS011;5576;50.008;10.596;2022-12-18T14:21:18;23.52;;;13.88;;
11046;SDS011;5576;50.008;10.596;2022-12-18T14:24:02;24.77;;;14.13;;
11046;SDS011;5576;50.008;10.596;2022-12-18T14:26:38;26.55;;;14.52;;
11046;SDS011;5576;50.008;10.596;2022-12-18T14:32:08;25.63;;;14.17;;
11046;SDS011;5576;50.008;10.596;2022-12-18T14:34:36;23.05;;;13.32;;
11046;SDS011;5576;50.008;10.596;2022-12-18T14:37:02;24.75;;;14.10;;
11046;SDS011;5576;50.008;10.596;2022-12-18T14:39:28;23.85;;;14.20;;
11046;SDS011;5576;50.008;10.596;2022-12-18T14:41:54;24.70;;;14.18;;
11046;SDS011;5576;50.008;10.596;2022-12-18T14:44:20;23.87;;;13.43;;
11046;SDS011;5576;50.008;10.596;2022-12-18T14:46:46;23.92;;;14.00;;
11046;SDS011;5576;50.008;10.596;2022-12-18T14:51:55;24.98;;;14.55;;
11046;SDS011;5576;50.008;10.596;2022-12-18T14:54:23;23.60;;;14.32;;
11046;SDS011;5576;50.008;10.596;2022-12-18T14:56:52;45.63;;;27.00;;
11046;SDS011;5576;50.008;10.596;2022-12-18T14:59:25;39.67;;;23.17;;
11046;SDS011;5576;50.008;10.596;2022-12-18T15:12:35;25.33;;;15.87;;
11046;SDS011;5576;50.008;10.596;2022-12-18T15:15:41;31.67;;;18.13;;
11046;SDS011;5576;50.008;10.596;2022-12-18T15:18:02;26.20;;;15.80;;
11046;SDS011;5576;50.008;10.596;2022-12-18T15:20:31;27.38;;;16.20;;
11046;SDS011;5576;50.008;10.596;2022-12-18T15:23:04;32.20;;;18.37;;
11046;SDS011;5576;50.008;10.596;2022-12-18T15:27:59;48.80;;;25.27;;
11046;SDS011;5576;50.008;10.596;2022-12-18T15:30:25;53.08;;;27.65;;
11046;SDS011;5576;50.008;10.596;2022-12-18T15:32:51;45.60;;;24.65;;
11046;SDS011;5576;50.008;10.596;2022-12-18T15:35:38;44.77;;;23.90;;
11046;SDS011;5576;50.008;10.596;2022-12-18T15:38:03;44.65;;;23.33;;
11046;SDS011;5576;50.008;10.596;2022-12-18T15:40:29;38.67;;;21.70;;
11046;SDS011;5576;50.008;10.596;2022-12-18T15:42:54;37.53;;;20.83;;
11046;SDS011;5576;50.008;10.596;2022-12-18T15:45:43;31.95;;;17.98;;
11046;SDS011;5576;50.008;10.596;2022-12-18T15:48:15;32.23;;;18.50;;
11046;SDS011;5576;50.008;10.596;2022-12-18T15:50:45;30.92;;;17.65;;
11046;SDS011;5576;50.008;10.596;2022-12-18T15:53:11;30.05;;;17.80;;
11046;SDS011;5576;50.008;10.596;2022-12-18T15:55:36;31.50;;;18.63;;
11046;SDS011;5576;50.008;10.596;2022-12-18T15:58:23;33.00;;;18.20;;
11046;SDS011;5576;50.008;10.596;2022-12-18T16:00:48;33.72;;;19.50;;
11046;SDS011;5576;50.008;10.596;2022-12-18T16:03:14;42.77;;;23.87;;
11046;SDS011;5576;50.008;10.596;2022-12-18T16:05:40;41.75;;;23.83;;
11046;SDS011;5576;50.008;10.596;2022-12-18T16:08:05;40.53;;;23.30;;
11046;SDS011;5576;50.008;10.596;2022-12-18T16:10:31;32.60;;;20.42;;
11046;SDS011;5576;50.008;10.596;2022-12-18T16:12:57;37.13;;;20.67;;
11046;SDS011;5576;50.008;10.596;2022-12-18T16:15:22;33.97;;;20.40;;
11046;SDS011;5576;50.008;10.596;2022-12-18T16:17:48;34.03;;;19.33;;
11046;SDS011;5576;50.008;10.596;2022-12-18T16:20:15;33.60;;;19.60;;
11046;SDS011;5576;50.008;10.596;2022-12-18T16:22:42;33.33;;;19.92;;
11046;SDS011;5576;50.008;10.596;2022-12-18T16:27:53;39.25;;;22.50;;
11046;SDS011;5576;50.008;10.596;2022-12-18T16:30:21;38.30;;;22.60;;
11046;SDS011;5576;50.008;10.596;2022-12-18T16:32:48;36.58;;;21.70;;
11046;SDS011;5576;50.008;10.596;2022-12-18T16:35:15;36.92;;;22.23;;